Historique des mesures à Cassis (13260), France
Quotidien Résumé Fevrier 2, 2018 Unités:  US    Métrique   Métrique/US
« Précédent (Jour)
Suivant (Jour) »
Quotidien Hebdomadaire Mensuel Annuel Période au choix
  Maximum: Minimum: Moyenne:
Température: TemperatureC °F 5.6 °F 7.2 °F
Point de rosée: DewpointC °F -2.9 °F -0.8 °F
Humidité: Humidity % 50 % 53 %
Vitesse du vent: WindSpeedKMH mph 0.0 mph 6.5 mph
Rafales: WindSpeedGustKMH mph - -
Vent:- - WSW
Pression: PressurehPa in 998.9 in -
Précipitations: 0.0 in    
Historical Graphs
 
 
Mesures pour : Fevrier 2, 2018
Heure Temperature Point de rosée Pression Vent Vitesse du vent Rafales Humidité Pluie (par heure) Conditions
TemperatureC °F DewpointC °F PressurehPa in Calm     Humidity % HourlyPrecipMM in SoftwareType W/m2
00:12 7.8 °F 0.9 °F 1000.2 in NW 6.8 mph 6.8 mph 62 % 0.0 in open2300-1.11 W/m2
01:12 7.9 °F 0.1 °F 999.5 in West 10.5 mph 11.1 mph 58 % 0.0 in open2300-1.11 W/m2
02:12 7.5 °F -1.0 °F 999.2 in WNW 14.3 mph 14.3 mph 55 % 0.0 in open2300-1.11 W/m2
03:12 7.0 °F -1.7 °F 999.2 in NNW 4.0 mph 5.0 mph 54 % 0.0 in open2300-1.11 W/m2
04:12 5.8 °F -1.2 °F 999.2 in NW 4.7 mph 6.4 mph 61 % 0.0 in open2300-1.11 W/m2
05:12 5.9 °F -1.1 °F 999.2 in Calm   2.1 mph 61 % 0.0 in open2300-1.11 W/m2
06:12 5.9 °F -1.3 °F 999.5 in West 2.6 mph 2.6 mph 60 % 0.0 in open2300-1.11 W/m2
07:12 5.6 °F -1.6 °F 999.5 in North 4.0 mph 7.6 mph 60 % 0.0 in open2300-1.11 W/m2
08:12 5.9 °F -1.8 °F 999.2 in Calm   8.7 mph 58 % 0.0 in open2300-1.11 W/m2
09:12 6.4 °F -1.6 °F 999.5 in Calm     57 % 0.0 in open2300-1.11 W/m2
11:12 7.4 °F -1.6 °F 999.9 in North 2.6 mph 11.9 mph 53 % 0.0 in open2300-1.11 W/m2
12:12 7.9 °F -0.9 °F 1000.2 in WSW 13.0 mph 13.0 mph 54 % 0.0 in open2300-1.11 W/m2
13:12 8.9 °F -0.2 °F 999.2 in NNW 8.7 mph 15.1 mph 53 % 0.0 in open2300-1.11 W/m2
14:12 8.9 °F 0.3 °F 998.9 in NNW 2.9 mph 4.0 mph 55 % 0.0 in open2300-1.11 W/m2
15:12 9.0 °F 0.9 °F 998.9 in NNE 6.4 mph 15.8 mph 57 % 0.0 in open2300-1.11 W/m2
16:12 9.3 °F 0.9 °F 998.9 in West 5.5 mph 5.5 mph 56 % 0.0 in open2300-1.11 W/m2
17:12 9.1 °F 0.5 °F 998.9 in West 6.1 mph 6.1 mph 55 % 0.0 in open2300-1.11 W/m2
18:12 8.6 °F 0.3 °F 999.2 in NNW 7.6 mph 11.1 mph 56 % 0.0 in open2300-1.11 W/m2
19:12 8.3 °F -0.5 °F 999.2 in NW 10.1 mph 22.7 mph 54 % 0.0 in open2300-1.11 W/m2
20:12 8.3 °F -1.6 °F 999.5 in Calm   8.7 mph 50 % 0.0 in open2300-1.11 W/m2
21:12 7.6 °F -1.9 °F 999.2 in WNW 14.3 mph 20.9 mph 51 % 0.0 in open2300-1.11 W/m2
22:12 6.9 °F -2.6 °F 998.9 in NW 7.6 mph 7.6 mph 51 % 0.0 in open2300-1.11 W/m2
23:12 6.5 °F -2.9 °F 999.2 in WNW 23.3 mph 23.3 mph 51 % 0.0 in open2300-1.11 W/m2
Observations météo à CASSIS
WU-History script by Weather Underground - 1 mb